TimeCDT,TemperatureF,Dew PointF,Humidity,Sea Level PressureIn,VisibilityMPH,Wind Direction,Wind SpeedMPH,Gust SpeedMPH,PrecipitationIn,Events,Conditions,WindDirDegrees,DateUTC
12:15 AM,51.8,39.2,62,30.21,10.0,South,6.9,-,N/A,,Overcast,170,2013-03-29 05:15:00
12:35 AM,50.0,39.2,66,30.19,10.0,SE,9.2,-,0.01,,Overcast,140,2013-03-29 05:35:00
12:55 AM,48.2,41.0,76,30.21,10.0,NNE,3.5,-,0.02,,Overcast,30,2013-03-29 05:55:00
1:15 AM,48.2,42.8,82,30.21,8.0,SE,3.5,-,0.09,,Overcast,140,2013-03-29 06:15:00
1:35 AM,46.4,42.8,87,30.20,4.0,ESE,6.9,-,0.20,,Overcast,120,2013-03-29 06:35:00
1:55 AM,46.4,44.6,93,30.22,5.0,Calm,Calm,-,0.27,Thunderstorm,Overcast,0,2013-03-29 06:55:00
2:15 AM,46.4,42.8,87,30.22,10.0,East,5.8,-,0.04,,Overcast,90,2013-03-29 07:15:00
2:35 AM,46.4,44.6,93,30.21,6.0,SSE,5.8,-,0.09,,Overcast,160,2013-03-29 07:35:00
2:55 AM,46.4,44.6,93,30.21,6.0,Calm,Calm,-,0.11,,Mostly Cloudy,0,2013-03-29 07:55:00
3:15 AM,46.4,44.6,93,30.20,6.0,South,6.9,-,0.01,,Overcast,170,2013-03-29 08:15:00
3:35 AM,46.4,44.6,93,30.19,8.0,South,9.2,-,0.02,,Overcast,170,2013-03-29 08:35:00
3:55 AM,48.2,44.6,87,30.19,10.0,SSE,4.6,-,0.02,,Overcast,160,2013-03-29 08:55:00
4:15 AM,48.2,44.6,87,30.19,7.0,South,5.8,-,0.02,,Overcast,190,2013-03-29 09:15:00
4:35 AM,48.2,44.6,87,30.19,5.0,Calm,Calm,-,0.06,,Overcast,0,2013-03-29 09:35:00
4:55 AM,48.2,46.4,93,30.17,5.0,South,8.1,-,0.12,,Overcast,180,2013-03-29 09:55:00
5:15 AM,48.2,46.4,93,30.17,7.0,South,8.1,-,N/A,,Overcast,180,2013-03-29 10:15:00
5:35 AM,48.2,46.4,93,30.18,10.0,South,5.8,-,N/A,,Mostly Cloudy,190,2013-03-29 10:35:00
5:55 AM,48.2,44.6,87,30.18,10.0,South,3.5,-,N/A,,Scattered Clouds,190,2013-03-29 10:55:00
6:15 AM,46.4,44.6,93,30.18,7.0,SSW,3.5,-,0.01,,Partly Cloudy,200,2013-03-29 11:15:00
6:35 AM,46.4,44.6,93,30.19,1.0,North,3.5,-,0.01,,Mostly Cloudy,10,2013-03-29 11:35:00
6:55 AM,46.4,44.6,93,30.19,2.0,NNE,4.6,-,0.01,,Mostly Cloudy,30,2013-03-29 11:55:00
7:15 AM,46.4,44.6,93,30.21,1.2,NE,5.8,-,N/A,,Overcast,50,2013-03-29 12:15:00
7:35 AM,46.4,44.6,93,30.21,0.2,NE,5.8,-,N/A,,Overcast,50,2013-03-29 12:35:00
7:55 AM,46.4,44.6,93,30.22,1.5,Calm,Calm,-,N/A,,Overcast,0,2013-03-29 12:55:00
8:15 AM,46.4,44.6,93,30.22,1.8,East,4.6,-,N/A,,Overcast,90,2013-03-29 13:15:00
8:35 AM,46.4,46.4,100,30.23,1.0,ENE,5.8,-,N/A,,Overcast,60,2013-03-29 13:35:00
8:55 AM,48.2,46.4,93,30.23,0.2,ENE,5.8,-,N/A,,Overcast,60,2013-03-29 13:55:00
9:15 AM,48.2,46.4,93,30.23,0.2,ENE,4.6,-,N/A,,Overcast,70,2013-03-29 14:15:00
9:35 AM,48.2,46.4,93,30.24,0.5,NE,3.5,-,N/A,,Overcast,50,2013-03-29 14:35:00
9:55 AM,48.2,46.4,93,30.24,0.8,ENE,3.5,-,N/A,,Overcast,70,2013-03-29 14:55:00
10:15 AM,48.2,46.4,93,30.24,3.0,NE,5.8,-,N/A,,Overcast,50,2013-03-29 15:15:00
10:35 AM,50.0,48.2,94,30.24,5.0,ENE,5.8,-,N/A,,Overcast,70,2013-03-29 15:35:00
10:55 AM,50.0,48.2,94,30.24,7.0,NE,5.8,-,N/A,,Overcast,50,2013-03-29 15:55:00
11:15 AM,51.8,48.2,88,30.24,7.0,Calm,Calm,-,N/A,,Overcast,0,2013-03-29 16:15:00
11:55 AM,53.6,48.2,82,30.24,10.0,NE,5.8,-,N/A,,Overcast,40,2013-03-29 16:55:00
12:15 PM,53.6,48.2,82,30.24,10.0,ENE,9.2,-,N/A,,Overcast,60,2013-03-29 17:15:00
12:35 PM,55.4,50.0,82,30.23,10.0,East,5.8,-,N/A,,Overcast,80,2013-03-29 17:35:00
12:55 PM,55.4,48.2,77,30.23,10.0,ENE,5.8,-,N/A,,Overcast,70,2013-03-29 17:55:00
1:15 PM,55.4,48.2,77,30.22,10.0,East,8.1,-,N/A,,Mostly Cloudy,80,2013-03-29 18:15:00
1:35 PM,57.2,48.2,72,30.22,10.0,East,8.1,-,N/A,,Scattered Clouds,100,2013-03-29 18:35:00
1:55 PM,59.0,50.0,72,30.21,10.0,NE,6.9,-,N/A,,Partly Cloudy,50,2013-03-29 18:55:00
2:15 PM,60.8,48.2,63,30.21,10.0,NE,5.8,-,N/A,,Scattered Clouds,50,2013-03-29 19:15:00
2:35 PM,60.8,46.4,59,30.21,10.0,NE,6.9,-,N/A,,Scattered Clouds,50,2013-03-29 19:35:00
2:55 PM,62.6,48.2,59,30.20,10.0,East,4.6,-,N/A,,Mostly Cloudy,90,2013-03-29 19:55:00
3:15 PM,62.6,46.4,55,30.19,10.0,NNE,3.5,-,N/A,,Scattered Clouds,20,2013-03-29 20:15:00
3:35 PM,62.6,46.4,55,30.18,10.0,Calm,Calm,-,N/A,,Clear,0,2013-03-29 20:35:00
3:55 PM,62.6,42.8,48,30.17,10.0,ESE,3.5,-,N/A,,Partly Cloudy,120,2013-03-29 20:55:00
4:15 PM,64.4,44.6,49,30.17,10.0,East,4.6,-,N/A,,Partly Cloudy,80,2013-03-29 21:15:00
4:35 PM,64.4,44.6,49,30.16,10.0,East,4.6,-,N/A,,Clear,100,2013-03-29 21:35:00
4:55 PM,62.6,42.8,48,30.16,10.0,Calm,Calm,-,N/A,,Scattered Clouds,0,2013-03-29 21:55:00
5:15 PM,64.4,42.8,45,30.16,2.5,ENE,6.9,-,N/A,,Mostly Cloudy,70,2013-03-29 22:15:00
5:35 PM,62.6,39.2,42,30.17,0.5,East,5.8,-,N/A,,Mostly Cloudy,100,2013-03-29 22:35:00
5:55 PM,62.6,39.2,42,30.17,1.5,ESE,3.5,-,N/A,,Clear,120,2013-03-29 22:55:00
6:15 PM,64.4,39.2,40,30.17,10.0,SE,3.5,-,N/A,,Clear,140,2013-03-29 23:15:00
6:35 PM,62.6,37.4,39,30.17,0.2,East,3.5,-,N/A,,Unknown,100,2013-03-29 23:35:00
6:55 PM,62.6,39.2,42,30.17,7.0,ESE,4.6,-,N/A,,Clear,120,2013-03-29 23:55:00
7:15 PM,62.6,37.4,39,30.17,10.0,SE,3.5,-,N/A,,Clear,130,2013-03-30 00:15:00
7:35 PM,60.8,39.2,45,30.17,9.0,Calm,Calm,-,N/A,,Clear,0,2013-03-30 00:35:00
7:55 PM,57.2,39.2,51,30.17,2.5,Calm,Calm,-,N/A,,Clear,0,2013-03-30 00:55:00
8:15 PM,55.4,39.2,54,30.18,3.0,East,3.5,-,N/A,,Clear,100,2013-03-30 01:15:00
8:35 PM,57.2,39.2,51,30.18,2.5,ESE,3.5,-,N/A,,Clear,110,2013-03-30 01:35:00
8:55 PM,55.4,41.0,58,30.18,10.0,SE,3.5,-,N/A,,Clear,130,2013-03-30 01:55:00
9:15 PM,55.4,39.2,54,30.18,10.0,Calm,Calm,-,N/A,,Clear,0,2013-03-30 02:15:00
9:35 PM,53.6,41.0,62,30.18,4.0,East,4.6,-,N/A,,Clear,100,2013-03-30 02:35:00
9:55 PM,51.8,41.0,67,30.19,10.0,ESE,3.5,-,N/A,,Clear,120,2013-03-30 02:55:00
10:15 PM,53.6,39.2,58,30.19,10.0,East,3.5,-,N/A,,Clear,100,2013-03-30 03:15:00
10:35 PM,51.8,39.2,62,30.19,5.0,ESE,4.6,-,N/A,,Clear,110,2013-03-30 03:35:00
10:55 PM,53.6,41.0,62,30.19,9.0,East,4.6,-,N/A,,Clear,100,2013-03-30 03:55:00
11:15 PM,51.8,39.2,62,30.19,10.0,ESE,5.8,-,N/A,,Clear,110,2013-03-30 04:15:00
11:35 PM,51.8,39.2,62,30.18,10.0,East,5.8,-,N/A,,Clear,100,2013-03-30 04:35:00
11:55 PM,51.8,37.4,58,30.17,10.0,ESE,4.6,-,N/A,,Clear,110,2013-03-30 04:55:00